Time;durP1;ratioP1;P1;durP2;ratioP2;P2;SDS_P1;SDS_P2;PMS_P1;PMS_P2;Temp;Humidity;BMP_temperature;BMP_pressure;BME280_temperature;BME280_humidity;BME280_pressure;Samples;Min_cycle;Max_cycle;Signal;HPM_P1;HPM_P2
2021/12/21 13:24:58;;;;;;;7.40;3.60;;;4.00;94.90;;;;;;5143794;27;20409;-69
2021/12/21 13:27:24;;;;;;;9.60;4.40;;;3.90;97.60;;;;;;5146864;27;20313;-69
2021/12/21 13:29:50;;;;;;;10.13;4.67;;;3.90;98.60;;;;;;5146139;27;20332;-69
2021/12/21 13:32:19;;;;;;;8.63;5.23;;;3.90;99.10;;;;;;5129050;27;20481;-69
2021/12/21 13:34:49;;;;;;;13.87;5.23;;;4.00;99.60;;;;;;5128747;27;20292;-68
2021/12/21 13:37:19;;;;;;;17.47;7.70;;;4.00;99.90;;;;;;5128123;27;20284;-70
2021/12/21 13:39:52;;;;;;;16.17;6.77;;;4.10;99.90;;;;;;5146768;27;20945;-68
2021/12/21 13:42:23;;;;;;;9.33;4.80;;;4.20;99.90;;;;;;5146992;27;20281;-70
2021/12/21 13:45:00;;;;;;;10.17;4.93;;;4.20;99.90;;;;;;5146901;27;20668;-70
2021/12/21 13:47:37;;;;;;;11.17;5.73;;;4.30;99.90;;;;;;5146640;27;20624;-72
2021/12/21 13:50:06;;;;;;;9.70;5.50;;;4.30;99.90;;;;;;5146273;27;20640;-72
2021/12/21 13:52:35;;;;;;;10.47;5.73;;;4.40;99.90;;;;;;5147040;27;20073;-73
2021/12/21 13:55:02;;;;;;;10.47;4.70;;;4.40;99.90;;;;;;5128788;27;20051;-72
2021/12/21 13:57:28;;;;;;;8.77;6.17;;;4.50;99.80;;;;;;5146563;27;20047;-73
2021/12/21 13:59:57;;;;;;;11.43;5.07;;;4.60;99.70;;;;;;5128492;27;20043;-72
2021/12/21 14:02:36;;;;;;;10.60;4.53;;;4.60;99.40;;;;;;5146629;27;20051;-73
2021/12/21 14:05:07;;;;;;;10.77;5.10;;;4.60;99.10;;;;;;5127155;27;20062;-73
2021/12/21 14:07:41;;;;;;;11.63;5.85;;;4.60;98.90;;;;;;5146269;27;20167;-74
2021/12/21 14:10:19;;;;;;;9.47;5.00;;;4.70;98.70;;;;;;5127233;27;20046;-72
2021/12/21 14:12:57;;;;;;;11.57;5.53;;;4.70;98.60;;;;;;5145966;27;20069;-72
2021/12/21 14:15:40;;;;;;;10.40;5.27;;;4.70;98.40;;;;;;5146252;27;20545;-70
2021/12/21 14:18:34;;;;;;;10.00;5.77;;;4.70;98.30;;;;;;5127554;27;20041;-70
2021/12/21 14:21:03;;;;;;;13.57;6.70;;;4.70;98.00;;;;;;5124199;27;20292;-71
2021/12/21 14:23:31;;;;;;;13.17;6.57;;;4.80;98.00;;;;;;5127822;27;20414;-71
2021/12/21 14:26:09;;;;;;;12.13;5.63;;;4.80;97.90;;;;;;5127505;27;20043;-68
2021/12/21 14:28:45;;;;;;;9.80;6.17;;;4.80;97.80;;;;;;5145606;27;20078;-69
2021/12/21 14:31:13;;;;;;;9.33;5.30;;;4.70;97.70;;;;;;5145941;27;20047;-69
2021/12/21 14:33:50;;;;;;;10.87;4.93;;;4.70;97.60;;;;;;5146084;27;20039;-68
2021/12/21 14:36:20;;;;;;;9.80;5.33;;;4.70;97.60;;;;;;5132767;27;20039;-71
2021/12/21 14:39:03;;;;;;;10.83;5.13;;;4.70;97.50;;;;;;5113401;27;20095;-70
2021/12/21 14:41:37;;;;;;;9.80;4.60;;;4.60;97.20;;;;;;5131884;27;20150;-71
2021/12/21 14:44:12;;;;;;;11.67;4.80;;;4.50;97.20;;;;;;5132047;27;20047;-71
2021/12/21 14:47:02;;;;;;;9.87;4.30;;;4.40;97.30;;;;;;5131151;27;20047;-70
2021/12/21 14:49:40;;;;;;;10.53;4.33;;;4.30;97.10;;;;;;5132050;27;20047;-75
2021/12/21 14:52:20;;;;;;;9.50;4.03;;;4.30;97.30;;;;;;5132401;27;20069;-72
2021/12/21 14:54:51;;;;;;;11.63;5.40;;;4.20;97.30;;;;;;5132293;27;20050;-72
2021/12/21 14:57:34;;;;;;;8.90;4.63;;;4.20;97.20;;;;;;5113864;27;20043;-73
2021/12/21 15:00:03;;;;;;;10.90;3.83;;;4.20;97.30;;;;;;5113543;27;20080;-77
2021/12/21 15:04:59;;;;;;;7.97;4.83;;;4.10;97.20;;;;;;5113965;27;20142;-76
2021/12/21 15:07:25;;;;;;;8.20;4.30;;;4.00;97.30;;;;;;5114078;27;20064;-74
2021/12/21 15:09:51;;;;;;;9.60;5.57;;;3.90;97.30;;;;;;5113569;27;20120;-76
2021/12/21 15:12:23;;;;;;;11.30;5.83;;;3.80;97.40;;;;;;5132529;27;20507;-76
2021/12/21 15:14:50;;;;;;;12.77;8.57;;;3.70;97.50;;;;;;5130963;27;20064;-70
2021/12/21 15:17:16;;;;;;;11.13;6.07;;;3.70;97.60;;;;;;5131389;27;20043;-69
2021/12/21 15:19:42;;;;;;;11.33;5.83;;;3.60;97.70;;;;;;5130951;27;20289;-68
2021/12/21 15:22:08;;;;;;;12.50;6.90;;;3.60;97.80;;;;;;5130387;27;20470;-69
2021/12/21 15:24:33;;;;;;;12.67;7.47;;;3.60;97.90;;;;;;5112185;27;20107;-68
2021/12/21 15:26:59;;;;;;;10.67;5.93;;;3.60;97.90;;;;;;5131086;27;20082;-67
2021/12/21 15:29:24;;;;;;;15.37;7.50;;;3.70;97.90;;;;;;5130183;27;20507;-70
2021/12/21 15:31:50;;;;;;;14.90;7.50;;;3.70;97.80;;;;;;5112896;27;20051;-69
2021/12/21 15:34:16;;;;;;;12.10;6.90;;;3.70;97.80;;;;;;5130894;27;20054;-69
2021/12/21 15:36:44;;;;;;;13.87;8.00;;;3.60;97.80;;;;;;5111167;27;20375;-69
2021/12/21 15:39:16;;;;;;;14.63;9.37;;;3.60;97.80;;;;;;5130741;27;20131;-74
2021/12/21 15:41:46;;;;;;;18.43;9.00;;;3.50;97.70;;;;;;5111290;27;20035;-72
2021/12/21 15:44:18;;;;;;;16.53;9.07;;;3.40;97.80;;;;;;5130515;27;20478;-72
2021/12/21 15:46:48;;;;;;;13.23;6.93;;;3.30;97.90;;;;;;5129754;27;20287;-75
2021/12/21 15:49:14;;;;;;;13.33;9.33;;;3.20;98.10;;;;;;5111610;27;20581;-73
2021/12/21 15:51:40;;;;;;;11.07;8.47;;;3.20;98.30;;;;;;5133375;27;20139;-81
2021/12/21 15:54:05;;;;;;;14.00;7.23;;;3.20;98.30;;;;;;5114801;27;20119;-81
2021/12/21 15:56:31;;;;;;;14.33;8.20;;;3.20;98.30;;;;;;5134590;27;20129;-82
2021/12/21 15:58:56;;;;;;;16.03;8.67;;;3.20;98.30;;;;;;5116943;27;20043;-80
2021/12/21 16:01:22;;;;;;;11.20;7.83;;;3.30;98.20;;;;;;5135921;27;20042;-77
2021/12/21 16:03:48;;;;;;;13.77;8.17;;;3.20;98.00;;;;;;5132901;27;20115;-79
2021/12/21 16:06:15;;;;;;;14.97;8.20;;;3.10;98.00;;;;;;5119925;27;20039;-80
2021/12/21 16:08:41;;;;;;;12.57;8.33;;;3.00;98.20;;;;;;5138667;27;20054;-80
2021/12/21 16:11:07;;;;;;;14.47;8.47;;;2.90;98.30;;;;;;5116238;27;20289;-83
2021/12/21 16:13:32;;;;;;;14.70;8.93;;;2.80;98.40;;;;;;5112851;27;20046;-80
2021/12/21 16:15:58;;;;;;;16.20;10.30;;;2.70;98.30;;;;;;5115849;27;20127;-81
2021/12/21 16:18:23;;;;;;;15.40;9.90;;;2.60;98.40;;;;;;5136048;27;20046;-80
